Alma, CO (80420)

11:22 AM MDT on July 25, 2016 (GMT -0600)
Placer Valley, Park County | | Change Station

Elev 11056 ft 39.35 °N, 106.06 °W | Updated 14 seconds ago

Scattered Clouds
Scattered Clouds
68.9 °F
Feels Like 68.9 °F
N
2.0
Wind Variable Wind from SW
Gusts 4.9 mph

Today
High -- | Low -- °F
--% Chance of Precip.
Yesterday
High -- | Low -- °F
Precip. -- in
Pressure 30.76 in
Visibility 10.0 miles
Clouds Scattered Clouds 6500 ft
Scattered Clouds 7500 ft
Scattered Clouds 11000 ft
Dew Point 26 °F
Humidity 20%
Rainfall 0.00 in
Snow Depth Not available.
5:58 AM 8:22 PM
Waning Gibbous, 64% visible
METAR KCCU 251716Z AUTO 33011G21KT 300V010 10SM SCT065 SCT075 SCT110 18/M04 A3076 RMK AO2
Pressure 30.76 in
Visibility 10.0 miles
Clouds Scattered Clouds 6500 ft
Scattered Clouds 7500 ft
Scattered Clouds 11000 ft
Dew Point 26 °F
Humidity 20%
Rainfall 0.00 in
Snow Depth Not available.
5:58 AM 8:22 PM
Waning Gibbous, 64% visible
METAR KCCU 251716Z AUTO 33011G21KT 300V010 10SM SCT065 SCT075 SCT110 18/M04 A3076 RMK AO2

10-Day Weather Forecast

Almanac

Astronomy

Jul. 25, 2016 Rise Set
Actual Time
Civil Twilight
Nautical Twilight
Astronomical Twilight
Moon
Length of Visible Light
Length of Day
Tomorrow will be .
, % of the Moon is Illuminated

Today's Extremes

State Highs State Lows

Community

WunderPhotos

Upload Photos

1,927,363 photos uploaded!

WunderBlog® & News

Nearby

Air Quality

  Air Quality AQ Index Pollutant
Not available.

Snow Depth

Station Depth Elevation

Earthquake Activity

City Distance Mag. Time & Date
Minimum magnitude displayed is 2.5.

Coastal Water Temperatures

Place Temperature

Stations

Nearby Weather Stations

Station Location Temp. Windchill Dew Point Humidity Wind Precip. Elev Updated Type
                   

Watches & Warnings

There are currently no watches in effect.